Wilmot, SD (57279)

8:46 PM CDT on August 01, 2015 (GMT -0500)
APRSWXNET | | Change Station
CLOSE
Current Station
Personal Weather Station
Location: Beardsley, MN
Elevation: 1164 ft
Nearby Weather Stations
Active Advisory: Severe Thunderstorm Watch

Elev 1164 ft 45.54 °N, 96.88 °W | Updated 26 minutes ago

Clear
Clear
84 °F
Feels Like 87 °F
N
0
Wind Variable Wind from SSW
Gusts 3.0 mph

Today
High -- | Low -- °F
--% Chance of Precip.
Yesterday
High -- | Low -- °F
Precip. -- in
6:11 AM 8:55 PM
Waning Gibbous, 96% visible
Pressure 29.75 in
Visibility 10.0 miles
Clouds Clear
Heat Index 87 °F
Dew Point 68 °F
Humidity 58%
Rainfall in
Snow Depth Not available.
UV 0 out of 12
Pollen 7.30 out of 12
Air Quality Not available.
Flu Activity Not available.
METAR KVVV 020134Z AUTO 00000KT 10SM CLR 27/18 A2975 RMK AO2

More Conditions Fewer Conditions

Pressure 29.75 in
Visibility 10.0 miles
Clouds Clear
Heat Index 87 °F
Dew Point 68 °F
Humidity 58%
Rainfall in
Snow Depth Not available.
UV 0 out of 12
Pollen 7.30 out of 12
Air Quality Not available.
Flu Activity Not available.
METAR KVVV 020134Z AUTO 00000KT 10SM CLR 27/18 A2975 RMK AO2

More Conditions Fewer Conditions

10-Day Weather Forecast

×

Almanac

Astronomy

Aug. 01, 2015 Rise Set
Actual Time
Civil Twilight
Nautical Twilight
Astronomical Twilight
Moon
Length of Visible Light
Length of Day
Tomorrow will be .
, % of the Moon is Illuminated

Today's Extremes

State Highs State Lows

Community

WunderPhotos

Upload Photos

1,843,127 photos uploaded!

WunderBlogs® & News

Nearby

Air Quality

  Air Quality AQ Index Pollutant
Not available.

Snow Depth

Station Depth Elevation

Earthquake Activity

City Distance Mag. Time & Date
Minimum magnitude displayed is 2.5.

Coastal Water Temperatures

Place Temperature

Stations

Nearby Weather Stations

Station Location Temp. Windchill Dew Point Humidity Wind Precip. Elev Updated Type
                   
Severe Thunderstorm Watch
Statement as of 8:43 PM CDT on August 01, 2015

Severe Thunderstorm Watch 460 remains in effect until 1200 am CDT

SD
. South Dakota counties included are

Beadle Brookings Brown
Clark Codington day
Deuel Grant Hamlin
hand Jerauld Kingsbury
Lake McCook Marshall
Miner Minnehaha Moody
Roberts Sanborn Spink